Time;durP1;ratioP1;P1;durP2;ratioP2;P2;SDS_P1;SDS_P2;PMS_P1;PMS_P2;Temp;Humidity;BMP_temperature;BMP_pressure;BME280_temperature;BME280_humidity;BME280_pressure;Samples;Min_cycle;Max_cycle;Signal;HPM_P1;HPM_P2
2022/10/01 00:01:17;;;;;;;28.98;22.40;;;20.30;95.20;;;;;;10117324;29;20692;-88
2022/10/01 00:06:21;;;;;;;27.38;22.08;;;20.30;95.20;;;;;;10132768;29;21039;-88
2022/10/01 00:11:25;;;;;;;26.23;20.58;;;20.30;95.50;;;;;;10139227;29;20283;-88
2022/10/01 00:16:29;;;;;;;25.38;21.15;;;20.30;95.10;;;;;;10172675;29;20295;-88
2022/10/01 00:21:31;;;;;;;26.58;21.17;;;20.20;95.10;;;;;;10154387;29;20306;-88
2022/10/01 00:26:36;;;;;;;26.23;21.08;;;20.20;95.10;;;;;;10135619;29;20624;-88
2022/10/01 00:31:39;;;;;;;25.65;21.00;;;20.20;95.10;;;;;;10133484;29;20292;-88
2022/10/01 00:36:41;;;;;;;26.95;21.23;;;20.20;95.00;;;;;;10115538;29;20255;-88
2022/10/01 00:41:44;;;;;;;26.95;21.58;;;20.20;94.90;;;;;;10157927;29;20231;-88
2022/10/01 00:46:46;;;;;;;27.77;21.48;;;20.20;94.80;;;;;;10154343;29;20243;-88
2022/10/01 00:51:55;;;;;;;25.52;20.95;;;20.20;94.80;;;;;;10170102;29;20232;-88
2022/10/01 00:57:00;;;;;;;22.42;19.60;;;20.10;94.60;;;;;;10171127;29;20263;-88
2022/10/01 01:02:02;;;;;;;25.42;19.90;;;20.10;94.50;;;;;;10153527;29;20242;-88
2022/10/01 01:07:06;;;;;;;25.83;20.55;;;20.10;94.40;;;;;;10168223;29;20228;-88
2022/10/01 01:12:16;;;;;;;25.90;21.35;;;20.10;94.30;;;;;;10129402;29;20358;-89
2022/10/01 01:17:28;;;;;;;24.40;19.40;;;20.00;94.60;;;;;;10169545;29;20302;-88
2022/10/01 01:22:35;;;;;;;24.80;20.35;;;20.00;94.60;;;;;;10152611;29;20258;-88
2022/10/01 01:27:44;;;;;;;22.35;18.58;;;20.00;94.60;;;;;;10169409;29;20231;-88
2022/10/01 01:32:51;;;;;;;26.48;20.17;;;19.90;94.60;;;;;;10120691;29;20688;-89
2022/10/01 01:38:02;;;;;;;23.20;19.13;;;19.90;94.60;;;;;;10168722;29;20246;-88
2022/10/01 01:43:09;;;;;;;25.17;19.92;;;19.90;94.50;;;;;;10168929;29;20694;-88
2022/10/01 01:48:13;;;;;;;26.88;19.75;;;19.90;94.60;;;;;;10167158;29;20231;-88
2022/10/01 01:53:18;;;;;;;25.60;18.92;;;19.90;94.60;;;;;;10112685;29;20243;-88
2022/10/01 01:58:21;;;;;;;28.35;20.27;;;19.90;94.50;;;;;;10136605;29;20252;-88
2022/10/01 02:03:25;;;;;;;27.23;20.27;;;19.80;94.70;;;;;;10136784;29;20255;-88
2022/10/01 02:08:40;;;;;;;23.40;17.77;;;19.80;94.70;;;;;;10150444;29;20203;-88
2022/10/01 02:13:49;;;;;;;23.98;19.10;;;19.70;94.70;;;;;;10168109;29;20683;-88
2022/10/01 02:18:59;;;;;;;23.70;19.63;;;19.70;94.80;;;;;;10159465;29;20238;-88
2022/10/01 02:24:24;;;;;;;21.05;17.50;;;19.70;94.90;;;;;;10151644;29;20321;-88
2022/10/01 02:29:28;;;;;;;23.08;17.63;;;19.60;94.80;;;;;;10150284;29;20636;-88
2022/10/01 02:34:31;;;;;;;22.48;18.25;;;19.70;94.80;;;;;;10147384;29;20691;-88
2022/10/01 02:39:36;;;;;;;22.50;18.85;;;19.70;94.80;;;;;;10156708;29;20674;-88
2022/10/01 02:44:41;;;;;;;21.45;17.45;;;19.60;94.80;;;;;;10171348;29;20248;-88
2022/10/01 02:49:43;;;;;;;22.20;17.70;;;19.60;94.80;;;;;;10137022;29;20302;-88
2022/10/01 02:54:54;;;;;;;21.25;17.40;;;19.60;94.70;;;;;;10152148;29;20203;-88
2022/10/01 02:59:59;;;;;;;23.23;17.67;;;19.60;94.80;;;;;;10131185;29;20243;-88
2022/10/01 03:05:03;;;;;;;21.98;18.08;;;19.60;94.70;;;;;;10119218;29;20315;-88
2022/10/01 03:10:07;;;;;;;17.83;15.85;;;19.60;94.70;;;;;;10147826;29;20255;-88
2022/10/01 03:15:12;;;;;;;19.75;16.67;;;19.60;94.60;;;;;;10132681;29;20240;-88
2022/10/01 03:20:14;;;;;;;19.60;16.55;;;19.60;94.70;;;;;;10152969;29;20264;-88
2022/10/01 03:25:17;;;;;;;18.65;16.55;;;19.50;94.70;;;;;;10130774;29;20296;-88
2022/10/01 03:30:20;;;;;;;21.73;16.88;;;19.50;94.80;;;;;;10119498;29;20236;-88
2022/10/01 03:35:23;;;;;;;19.90;17.80;;;19.50;94.60;;;;;;10173781;29;20235;-88
2022/10/01 03:40:26;;;;;;;20.63;16.80;;;19.50;94.60;;;;;;10154237;29;20239;-88
2022/10/01 03:45:28;;;;;;;21.70;16.15;;;19.50;94.50;;;;;;10133823;29;20236;-88
2022/10/01 03:50:30;;;;;;;19.27;16.45;;;19.50;94.50;;;;;;10138080;29;20738;-88
2022/10/01 03:55:33;;;;;;;20.80;16.15;;;19.50;94.40;;;;;;10167627;29;20237;-88
2022/10/01 04:00:35;;;;;;;20.60;16.27;;;19.50;94.40;;;;;;10149803;29;20238;-88
2022/10/01 04:05:38;;;;;;;19.80;16.20;;;19.50;94.40;;;;;;10165673;29;20646;-88
2022/10/01 04:10:41;;;;;;;18.52;14.90;;;19.40;94.40;;;;;;10129206;29;20348;-88
2022/10/01 04:15:43;;;;;;;20.05;16.33;;;19.40;94.40;;;;;;10116892;29;21041;-88
2022/10/01 04:20:46;;;;;;;18.85;15.43;;;19.40;94.50;;;;;;10150944;29;20247;-89
2022/10/01 04:25:49;;;;;;;20.40;16.08;;;19.40;94.40;;;;;;10140688;29;20256;-88
2022/10/01 04:31:23;;;;;;;18.58;16.23;;;19.40;94.40;;;;;;10140960;29;20235;-89
2022/10/01 04:36:14;;;;;;;17.67;15.77;;;19.30;94.40;;;;;;10157643;29;20253;-88
2022/10/01 04:41:17;;;;;;;17.88;15.10;;;19.30;94.50;;;;;;10189098;29;20309;-88
2022/10/01 04:46:19;;;;;;;18.92;15.43;;;19.30;94.40;;;;;;10156961;29;20246;-88
2022/10/01 04:51:22;;;;;;;19.58;15.15;;;19.30;94.40;;;;;;10177531;29;20227;-88
2022/10/01 04:56:24;;;;;;;17.23;14.32;;;19.30;94.30;;;;;;10175070;29;20310;-88
2022/10/01 05:01:29;;;;;;;16.70;14.77;;;19.30;94.30;;;;;;10190679;29;20263;-88
2022/10/01 05:06:32;;;;;;;16.73;14.50;;;19.30;94.30;;;;;;10167543;29;20255;-88
2022/10/01 05:11:34;;;;;;;17.92;14.00;;;19.20;94.20;;;;;;10171554;29;20306;-88
2022/10/01 05:16:38;;;;;;;17.02;13.77;;;19.30;94.20;;;;;;10170740;29;20230;-89
2022/10/01 05:21:42;;;;;;;17.58;14.32;;;19.30;94.10;;;;;;10167589;29;20239;-88
2022/10/01 05:26:44;;;;;;;16.20;13.50;;;19.30;94.10;;;;;;10169970;29;20246;-88
2022/10/01 05:31:47;;;;;;;17.02;14.05;;;19.30;94.00;;;;;;10186827;29;20289;-89
2022/10/01 05:36:49;;;;;;;16.95;13.45;;;19.30;94.00;;;;;;10191915;29;20750;-88
2022/10/01 05:41:54;;;;;;;14.68;13.05;;;19.30;93.90;;;;;;10130114;29;20239;-89
2022/10/01 05:46:56;;;;;;;18.05;13.07;;;19.30;93.90;;;;;;10151215;29;20247;-88
2022/10/01 05:51:59;;;;;;;15.68;13.48;;;19.30;93.90;;;;;;10169608;29;20199;-88
2022/10/01 05:57:04;;;;;;;14.85;13.30;;;19.30;93.80;;;;;;10151941;29;20247;-88
2022/10/01 06:02:08;;;;;;;14.13;12.73;;;19.20;93.90;;;;;;10126566;29;20268;-88
2022/10/01 06:07:12;;;;;;;15.80;13.25;;;19.30;93.90;;;;;;10113293;29;20251;-88
2022/10/01 06:12:15;;;;;;;14.90;13.20;;;19.30;93.80;;;;;;10135542;29;20774;-88
2022/10/01 06:17:21;;;;;;;14.18;12.68;;;19.30;93.90;;;;;;10151115;29;20676;-88
2022/10/01 06:22:23;;;;;;;16.60;13.57;;;19.20;94.00;;;;;;10116382;29;20307;-88
2022/10/01 06:27:25;;;;;;;14.75;13.05;;;19.20;94.00;;;;;;10129733;29;20300;-88
2022/10/01 06:32:28;;;;;;;14.82;12.43;;;19.20;94.00;;;;;;10128474;29;20260;-89
2022/10/01 06:37:37;;;;;;;16.52;13.88;;;19.20;94.10;;;;;;10111486;29;20216;-89
2022/10/01 06:42:46;;;;;;;14.80;13.05;;;19.20;94.10;;;;;;10110361;29;20236;-88
2022/10/01 06:47:57;;;;;;;15.30;13.10;;;19.30;94.10;;;;;;10149337;29;20279;-88
2022/10/01 06:53:00;;;;;;;15.20;12.90;;;19.20;94.10;;;;;;10166900;29;20231;-89
2022/10/01 06:58:10;;;;;;;14.98;12.65;;;19.20;94.20;;;;;;10166780;29;20644;-89
2022/10/01 07:03:17;;;;;;;14.90;13.03;;;19.30;94.30;;;;;;10126269;29;20236;-88
2022/10/01 07:08:21;;;;;;;15.55;12.90;;;19.20;94.30;;;;;;10108293;29;20237;-88
2022/10/01 07:13:23;;;;;;;14.23;12.48;;;19.30;94.40;;;;;;10113320;29;20255;-89
2022/10/01 07:18:26;;;;;;;14.95;12.52;;;19.30;94.40;;;;;;10118543;29;20272;-88
2022/10/01 07:23:28;;;;;;;14.15;12.65;;;19.30;94.40;;;;;;10139127;29;20683;-88
2022/10/01 07:28:31;;;;;;;15.18;12.32;;;19.30;94.40;;;;;;10125440;29;20235;-88
2022/10/01 07:33:33;;;;;;;18.15;13.23;;;19.40;94.30;;;;;;10118061;29;20299;-88
2022/10/01 07:38:35;;;;;;;15.82;12.20;;;19.40;94.20;;;;;;10134602;29;20289;-89
2022/10/01 07:43:40;;;;;;;15.43;12.93;;;19.40;94.20;;;;;;10143619;29;20688;-89
2022/10/01 07:48:45;;;;;;;13.48;11.88;;;19.40;94.20;;;;;;10173514;29;20290;-89
2022/10/01 07:53:51;;;;;;;13.70;12.30;;;19.50;94.10;;;;;;10135318;29;20241;-88
2022/10/01 07:58:58;;;;;;;13.82;12.15;;;19.50;94.00;;;;;;10115238;29;20260;-88
2022/10/01 08:05:16;;;;;;;14.25;12.55;;;19.50;94.00;;;;;;10142864;29;20271;-89
2022/10/01 08:09:23;;;;;;;14.68;12.10;;;19.50;94.10;;;;;;10080655;29;20769;-89
2022/10/01 08:14:27;;;;;;;15.68;12.10;;;19.60;94.20;;;;;;10094719;29;20701;-89
2022/10/01 08:19:30;;;;;;;14.18;12.13;;;19.70;93.90;;;;;;10152301;29;20232;-89
2022/10/01 08:24:36;;;;;;;12.73;11.38;;;19.80;93.50;;;;;;10140329;29;20255;-89
2022/10/01 08:29:42;;;;;;;13.88;12.15;;;19.90;93.70;;;;;;10128097;29;20306;-89
2022/10/01 08:34:45;;;;;;;11.88;10.70;;;19.90;93.50;;;;;;10112727;29;20239;-88
2022/10/01 08:39:48;;;;;;;13.95;11.30;;;19.80;93.60;;;;;;10135743;29;20930;-89
2022/10/01 08:44:51;;;;;;;13.77;11.80;;;19.90;93.60;;;;;;10114121;29;20660;-89
2022/10/01 08:49:59;;;;;;;12.48;11.23;;;19.90;93.90;;;;;;10093615;29;21090;-88
2022/10/01 08:55:08;;;;;;;12.60;11.30;;;19.90;93.70;;;;;;10093914;29;20644;-89
2022/10/01 09:00:13;;;;;;;14.07;10.55;;;19.90;93.80;;;;;;10118373;29;20307;-88
2022/10/01 09:05:35;;;;;;;12.48;11.18;;;19.90;93.90;;;;;;10130527;29;20259;-88
2022/10/01 09:10:51;;;;;;;12.65;11.32;;;19.80;93.90;;;;;;10099191;29;20272;-88
2022/10/01 09:15:59;;;;;;;13.13;10.57;;;19.90;94.00;;;;;;10126523;29;20248;-88
2022/10/01 09:21:11;;;;;;;13.57;11.63;;;19.90;93.90;;;;;;10121725;29;20293;-88
2022/10/01 09:26:13;;;;;;;12.52;11.23;;;19.90;93.80;;;;;;10093730;29;20639;-88
2022/10/01 09:31:36;;;;;;;11.90;10.50;;;19.90;94.10;;;;;;10092753;29;20955;-88
2022/10/01 09:37:02;;;;;;;11.75;10.20;;;20.00;94.10;;;;;;10092164;29;20240;-88
2022/10/01 09:42:05;;;;;;;12.02;10.82;;;19.70;94.80;;;;;;10126991;29;20232;-88
2022/10/01 09:47:17;;;;;;;11.93;10.73;;;19.90;94.20;;;;;;10113576;29;20762;-88
2022/10/01 09:52:39;;;;;;;12.30;10.93;;;19.60;95.10;;;;;;10110946;29;20225;-88
2022/10/01 09:58:13;;;;;;;11.55;10.32;;;19.90;94.50;;;;;;10092247;29;20360;-88
2022/10/01 10:03:25;;;;;;;12.82;11.52;;;19.80;95.30;;;;;;10103906;29;20315;-88
2022/10/01 10:08:35;;;;;;;10.93;9.63;;;19.90;94.40;;;;;;10091556;29;20769;-89
2022/10/01 10:13:49;;;;;;;11.93;10.63;;;20.00;95.50;;;;;;10129513;29;20268;-88
2022/10/01 10:18:56;;;;;;;11.10;9.90;;;19.80;95.00;;;;;;10128038;29;20232;-88
2022/10/01 10:24:01;;;;;;;11.88;9.70;;;20.00;94.40;;;;;;10107902;29;20289;-88
2022/10/01 10:29:50;;;;;;;10.88;9.77;;;19.80;94.70;;;;;;10100339;29;20339;-88
2022/10/01 10:35:03;;;;;;;9.63;8.60;;;19.60;95.20;;;;;;10136566;29;20235;-88
2022/10/01 10:40:52;;;;;;;11.18;9.57;;;19.70;95.40;;;;;;10105446;29;20720;-88
2022/10/01 10:45:57;;;;;;;11.10;9.93;;;19.70;95.00;;;;;;10109823;29;20755;-88
2022/10/01 10:51:52;;;;;;;11.65;9.98;;;19.60;95.30;;;;;;9970492;29;20227;-88
2022/10/01 10:57:26;;;;;;;11.40;10.23;;;19.80;95.50;;;;;;9937963;29;20238;-88
2022/10/01 11:02:31;;;;;;;10.02;8.77;;;19.80;94.80;;;;;;9956748;29;20251;-88
2022/10/01 11:07:34;;;;;;;10.32;9.38;;;19.60;95.60;;;;;;9959080;29;20879;-87
2022/10/01 11:12:47;;;;;;;11.05;9.85;;;19.60;95.70;;;;;;9942737;29;20815;-88
2022/10/01 11:18:09;;;;;;;10.68;9.57;;;19.70;95.40;;;;;;9966073;29;20250;-87
2022/10/01 11:23:25;;;;;;;9.48;8.02;;;19.60;95.90;;;;;;9983456;29;20243;-87
2022/10/01 11:28:46;;;;;;;10.88;6.82;;;18.60;98.00;;;;;;10052748;29;20267;-87
2022/10/01 11:34:07;;;;;;;8.70;6.03;;;18.80;99.00;;;;;;10095001;29;20244;-87
2022/10/01 11:39:16;;;;;;;7.60;5.70;;;19.30;97.10;;;;;;10094426;29;20712;-87
2022/10/01 11:44:29;;;;;;;6.20;5.60;;;19.50;96.10;;;;;;10079806;29;20240;-87
2022/10/01 11:49:51;;;;;;;6.47;5.65;;;19.50;96.80;;;;;;10095627;29;20296;-87
2022/10/01 11:58:49;;;;;;;5.45;4.80;;;19.50;96.20;;;;;;10079068;29;20244;-87
2022/10/01 12:00:23;;;;;;;10.00;5.88;;;19.40;96.20;;;;;;10077508;29;20328;-87
2022/10/01 12:05:32;;;;;;;5.93;5.35;;;19.60;95.80;;;;;;10095608;29;20799;-87
2022/10/01 12:10:40;;;;;;;5.88;4.88;;;19.20;96.70;;;;;;10078447;29;20328;-87
2022/10/01 12:16:04;;;;;;;5.95;5.03;;;19.10;97.40;;;;;;10078956;29;20689;-87
2022/10/01 12:21:22;;;;;;;6.72;5.60;;;19.20;97.10;;;;;;10095189;29;20236;-87
2022/10/01 12:26:53;;;;;;;5.75;5.18;;;19.40;96.70;;;;;;10094602;29;20680;-87
2022/10/01 12:32:12;;;;;;;7.20;5.43;;;19.40;96.50;;;;;;10078058;29;20692;-87
2022/10/01 12:37:38;;;;;;;6.85;5.35;;;19.60;96.40;;;;;;10127529;29;20683;-87
2022/10/01 12:43:01;;;;;;;6.43;5.03;;;19.60;96.00;;;;;;10170359;29;20576;-87
2022/10/01 12:48:31;;;;;;;8.68;5.45;;;19.40;97.50;;;;;;10154258;29;20231;-87
2022/10/01 12:54:01;;;;;;;8.00;5.07;;;19.40;96.60;;;;;;10156019;29;20255;-87
2022/10/01 12:59:39;;;;;;;6.05;4.60;;;19.40;96.50;;;;;;10154271;29;20718;-87
2022/10/01 13:05:19;;;;;;;5.07;4.57;;;19.40;96.60;;;;;;10147771;29;20306;-87
2022/10/01 13:10:47;;;;;;;6.15;5.05;;;19.30;96.80;;;;;;10170293;29;20668;-87
2022/10/01 13:16:16;;;;;;;5.80;4.83;;;19.20;97.30;;;;;;10154029;29;20235;-87
2022/10/01 13:21:29;;;;;;;4.72;4.25;;;18.90;98.00;;;;;;10170835;29;20231;-87
2022/10/01 13:26:47;;;;;;;6.93;4.90;;;19.10;97.50;;;;;;10153146;29;20262;-87
2022/10/01 13:31:56;;;;;;;5.38;4.88;;;19.30;96.90;;;;;;10153410;29;20267;-87
2022/10/01 13:37:38;;;;;;;4.78;4.38;;;19.40;96.60;;;;;;10170131;29;20232;-87
2022/10/01 13:42:44;;;;;;;6.18;4.50;;;18.90;97.70;;;;;;10140636;29;20238;-87
2022/10/01 13:47:47;;;;;;;7.45;4.40;;;19.00;98.00;;;;;;10152125;29;20267;-87
2022/10/01 13:53:14;;;;;;;4.93;4.53;;;19.20;97.40;;;;;;10151894;29;20306;-87
2022/10/01 13:58:31;;;;;;;7.38;5.90;;;18.80;98.70;;;;;;10135972;29;20646;-87
2022/10/01 14:03:48;;;;;;;4.57;4.18;;;18.90;98.60;;;;;;10151741;29;20243;-87
2022/10/01 14:09:09;;;;;;;5.72;4.38;;;18.80;98.70;;;;;;10151827;29;20266;-87
2022/10/01 14:19:45;;;;;;;7.45;5.25;;;19.00;98.30;;;;;;10151181;29;20215;-87
2022/10/01 14:24:51;;;;;;;7.32;5.97;;;19.10;98.60;;;;;;10150035;29;20211;-87
2022/10/01 14:30:11;;;;;;;6.53;4.65;;;19.10;98.60;;;;;;10151265;29;20988;-86
2022/10/01 14:35:44;;;;;;;4.95;4.25;;;19.00;98.20;;;;;;10168060;29;20227;-86
2022/10/01 14:40:49;;;;;;;4.60;4.13;;;18.90;98.70;;;;;;10073305;29;20213;-87
2022/10/01 14:46:18;;;;;;;5.82;4.03;;;18.70;99.70;;;;;;10090455;29;20281;-86
2022/10/01 14:51:27;;;;;;;6.10;4.28;;;18.70;99.50;;;;;;10088673;29;20240;-87
2022/10/01 14:56:29;;;;;;;4.53;3.83;;;18.60;99.60;;;;;;10074148;29;20237;-86
2022/10/01 15:01:32;;;;;;;4.43;4.03;;;18.80;99.00;;;;;;10073559;29;20240;-87
2022/10/01 15:06:41;;;;;;;5.63;4.60;;;18.60;99.80;;;;;;10073106;29;20268;-86
2022/10/01 15:11:47;;;;;;;4.30;3.83;;;18.60;99.70;;;;;;10089879;29;20273;-87
2022/10/01 15:16:50;;;;;;;4.57;4.07;;;18.60;99.70;;;;;;10073370;29;20305;-86
2022/10/01 15:21:59;;;;;;;4.50;3.53;;;18.60;99.70;;;;;;10073209;29;20323;-87
2022/10/01 15:27:01;;;;;;;5.57;4.70;;;18.60;99.50;;;;;;10073479;29;20300;-86
2022/10/01 15:32:05;;;;;;;6.00;5.13;;;18.70;99.50;;;;;;10089980;29;20245;-86
2022/10/01 15:37:17;;;;;;;4.83;4.30;;;18.50;99.90;;;;;;10079688;29;21024;-86
2022/10/01 15:42:27;;;;;;;4.87;4.47;;;18.60;99.80;;;;;;10097958;29;20613;-87
2022/10/01 15:47:36;;;;;;;5.50;4.57;;;18.70;99.70;;;;;;10096563;29;20260;-86
2022/10/01 15:52:50;;;;;;;4.70;4.20;;;18.80;99.40;;;;;;10079694;29;20216;-87
2022/10/01 15:58:03;;;;;;;5.07;4.10;;;18.60;99.80;;;;;;10079800;29;20293;-86
2022/10/01 16:03:22;;;;;;;5.03;4.03;;;18.50;99.90;;;;;;10079588;29;20707;-86
2022/10/01 16:08:33;;;;;;;6.57;4.50;;;18.60;99.90;;;;;;10082890;29;20655;-87
2022/10/01 16:13:42;;;;;;;4.97;4.03;;;18.60;99.90;;;;;;10154196;29;20302;-86
2022/10/01 16:18:53;;;;;;;7.13;4.90;;;18.50;99.90;;;;;;10150523;29;20624;-86
2022/10/01 16:23:55;;;;;;;7.80;5.87;;;18.50;99.90;;;;;;10117030;29;20236;-87
2022/10/01 16:29:17;;;;;;;15.20;6.17;;;16.90;99.90;;;;;;10099435;29;20267;-86
2022/10/01 16:34:20;;;;;;;12.73;6.57;;;18.00;99.90;;;;;;10127260;29;20233;-86
2022/10/01 16:39:23;;;;;;;11.50;6.50;;;19.00;99.90;;;;;;10118902;29;20244;-86
2022/10/01 16:44:25;;;;;;;9.33;8.33;;;15.90;99.90;;;;;;10096857;29;20248;-85
2022/10/01 16:49:28;;;;;;;14.87;8.90;;;17.00;99.90;;;;;;10086488;29;20335;-86
2022/10/01 16:54:30;;;;;;;12.27;10.50;;;19.10;99.90;;;;;;10141603;29;20647;-86
2022/10/01 16:59:33;;;;;;;17.40;10.52;;;19.90;99.90;;;;;;10102064;29;20240;-86
2022/10/01 17:04:35;;;;;;;14.48;10.48;;;19.90;99.90;;;;;;10093099;29;20701;-86
2022/10/01 17:09:38;;;;;;;12.80;10.65;;;20.40;99.90;;;;;;10108416;29;20268;-86
2022/10/01 17:14:41;;;;;;;13.45;10.20;;;20.50;99.90;;;;;;10095490;29;20236;-86
2022/10/01 17:19:43;;;;;;;14.05;10.45;;;20.80;99.90;;;;;;10126231;29;20676;-86
2022/10/01 17:24:45;;;;;;;13.30;10.60;;;20.90;99.90;;;;;;10101455;29;20605;-87
2022/10/01 17:29:50;;;;;;;15.85;10.63;;;20.40;99.90;;;;;;10101169;29;20228;-86
2022/10/01 17:34:53;;;;;;;12.65;9.82;;;20.90;99.90;;;;;;10111719;29;20299;-87
2022/10/01 17:39:55;;;;;;;10.60;9.50;;;21.00;99.90;;;;;;10082394;29;20288;-86
2022/10/01 17:44:58;;;;;;;13.50;10.40;;;21.00;99.90;;;;;;10100449;29;20902;-86
2022/10/01 17:50:01;;;;;;;12.40;9.55;;;21.00;99.90;;;;;;10075767;29;20304;-86
2022/10/01 17:55:05;;;;;;;13.98;8.65;;;20.50;99.90;;;;;;10098911;29;20269;-86
2022/10/01 18:00:08;;;;;;;9.00;7.80;;;20.40;99.90;;;;;;9756711;29;10000981;-86
2022/10/01 18:05:13;;;;;;;12.30;9.82;;;19.30;99.90;;;;;;10100199;29;20311;-86
2022/10/01 18:10:16;;;;;;;9.23;6.23;;;17.70;99.90;;;;;;10069605;29;20264;-86
2022/10/01 18:15:21;;;;;;;8.17;6.00;;;14.80;99.90;;;;;;10032918;29;20618;-86
2022/10/01 18:20:23;;;;;;;7.70;5.80;;;15.80;99.90;;;;;;10075902;29;20240;-86
2022/10/01 18:25:26;;;;;;;18.80;10.77;;;13.40;99.90;;;;;;10070406;29;20228;-86
2022/10/01 18:30:29;;;;;;;14.03;9.20;;;11.70;99.90;;;;;;10059229;29;20252;-86
2022/10/01 18:35:33;;;;;;;13.23;8.73;;;11.30;99.90;;;;;;10054291;29;20237;-86
2022/10/01 18:40:42;;;;;;;10.30;7.70;;;11.10;99.90;;;;;;10037611;29;20289;-85
2022/10/01 18:46:10;;;;;;;13.80;8.93;;;10.90;99.90;;;;;;10050533;29;20249;-86
2022/10/01 18:51:39;;;;;;;12.17;8.37;;;11.00;99.90;;;;;;10066417;29;20244;-87
2022/10/01 18:56:57;;;;;;;10.87;7.83;;;11.00;99.90;;;;;;10049620;29;20244;-86
2022/10/01 19:02:28;;;;;;;11.27;9.17;;;11.10;99.90;;;;;;10030516;29;20251;-86
2022/10/01 19:07:56;;;;;;;13.63;9.67;;;11.20;99.90;;;;;;10054192;29;20260;-85
2022/10/01 19:13:27;;;;;;;14.83;9.20;;;11.00;99.90;;;;;;10040567;29;20273;-85
2022/10/01 19:18:50;;;;;;;10.60;9.00;;;11.20;99.90;;;;;;10054856;29;20313;-86
2022/10/01 19:24:14;;;;;;;9.43;8.47;;;11.10;99.90;;;;;;10040457;29;20272;-86
2022/10/01 19:29:37;;;;;;;12.10;8.97;;;11.30;99.90;;;;;;10042512;29;20256;-86
2022/10/01 19:34:56;;;;;;;13.10;10.13;;;11.10;99.90;;;;;;10041133;29;20237;-86
2022/10/01 19:40:13;;;;;;;14.90;10.70;;;10.90;99.90;;;;;;10064382;29;20260;-86
2022/10/01 19:46:04;;;;;;;21.90;10.47;;;11.00;99.90;;;;;;10061898;29;20250;-86
2022/10/01 19:51:11;;;;;;;18.03;11.30;;;11.20;99.90;;;;;;9986376;29;20269;-85
2022/10/01 19:56:22;;;;;;;14.00;8.67;;;11.00;99.90;;;;;;9995276;29;20250;-86
2022/10/01 20:01:35;;;;;;;12.63;9.20;;;12.40;99.90;;;;;;9960959;29;20258;-86
2022/10/01 20:06:41;;;;;;;9.10;7.30;;;13.00;99.90;;;;;;9980193;29;20250;-86
2022/10/01 20:12:06;;;;;;;8.27;7.10;;;12.80;99.90;;;;;;9957878;29;20263;-86
2022/10/01 20:17:22;;;;;;;8.80;7.27;;;13.70;99.90;;;;;;9942629;29;20242;-86
2022/10/01 20:22:55;;;;;;;8.03;5.93;;;16.00;99.90;;;;;;10064362;29;20252;-86
2022/10/01 20:28:40;;;;;;;6.23;5.63;;;18.50;99.90;;;;;;10091014;29;20685;-86
2022/10/01 20:34:09;;;;;;;8.43;6.00;;;19.60;99.90;;;;;;9900211;29;20247;-86
2022/10/01 20:39:27;;;;;;;6.87;5.63;;;19.70;99.90;;;;;;9921324;29;20246;-86
2022/10/01 20:44:38;;;;;;;6.88;5.45;;;20.10;99.90;;;;;;9934998;29;20251;-86
2022/10/01 20:50:00;;;;;;;8.45;6.18;;;20.10;99.90;;;;;;9917827;29;20263;-86
2022/10/01 20:55:25;;;;;;;6.53;5.68;;;20.10;99.90;;;;;;9929065;29;20273;-86
2022/10/01 21:00:36;;;;;;;6.80;6.13;;;20.20;99.90;;;;;;9919454;29;20259;-86
2022/10/01 21:05:46;;;;;;;6.60;5.38;;;20.10;99.90;;;;;;9981787;29;20244;-86
2022/10/01 21:10:58;;;;;;;6.10;5.50;;;20.20;99.90;;;;;;10105272;29;20323;-86
2022/10/01 21:16:28;;;;;;;8.43;6.18;;;20.20;99.90;;;;;;10139406;29;20243;-86
2022/10/01 21:21:45;;;;;;;5.28;4.75;;;20.10;99.90;;;;;;10117364;29;20313;-86
2022/10/01 21:27:48;;;;;;;7.60;6.20;;;19.10;99.90;;;;;;10567715;27;20328;-86
2022/10/01 21:33:13;;;;;;;6.55;5.88;;;19.80;99.90;;;;;;10574142;28;20220;-86
2022/10/01 21:38:38;;;;;;;6.95;6.32;;;20.10;99.90;;;;;;10526985;28;20244;-86
2022/10/01 21:44:08;;;;;;;8.82;6.13;;;20.00;99.90;;;;;;10527166;28;20237;-86
2022/10/01 21:49:30;;;;;;;7.70;5.22;;;20.10;99.90;;;;;;10585478;28;20224;-86
2022/10/01 21:55:12;;;;;;;7.22;6.60;;;20.10;99.90;;;;;;10545217;28;20205;-86
2022/10/01 22:00:25;;;;;;;5.72;5.20;;;20.10;99.90;;;;;;10578086;27;20245;-86
2022/10/01 22:05:37;;;;;;;6.07;5.47;;;20.00;99.90;;;;;;10525519;28;20650;-86
2022/10/01 22:10:45;;;;;;;7.72;6.40;;;20.00;99.90;;;;;;10536960;28;20283;-87
2022/10/01 22:15:51;;;;;;;6.20;5.60;;;20.00;99.90;;;;;;10589930;28;20228;-87
2022/10/01 22:20:56;;;;;;;6.10;5.47;;;20.00;99.90;;;;;;10547625;28;20254;-86
2022/10/01 22:26:06;;;;;;;5.30;4.80;;;19.80;99.90;;;;;;10585563;28;20638;-87
2022/10/01 22:31:15;;;;;;;6.82;5.60;;;19.80;99.90;;;;;;10577405;28;20217;-87
2022/10/01 22:36:40;;;;;;;5.95;5.22;;;19.90;99.90;;;;;;10586257;28;20587;-86
2022/10/01 22:41:59;;;;;;;6.07;5.50;;;19.90;99.90;;;;;;10562674;28;20233;-87
2022/10/01 22:47:37;;;;;;;7.20;5.45;;;19.90;99.90;;;;;;10544294;28;20253;-86
2022/10/01 22:53:06;;;;;;;6.30;5.70;;;19.70;99.90;;;;;;10514636;28;20289;-87
2022/10/01 22:58:44;;;;;;;6.57;4.70;;;19.80;99.90;;;;;;10540336;28;20279;-86
2022/10/01 23:04:08;;;;;;;8.38;5.15;;;19.70;99.90;;;;;;10528660;28;20230;-86
2022/10/01 23:09:14;;;;;;;5.47;4.95;;;19.70;99.90;;;;;;10508660;28;20248;-86
2022/10/01 23:14:35;;;;;;;5.95;5.35;;;19.60;99.90;;;;;;10543359;28;20201;-87
2022/10/01 23:19:56;;;;;;;5.47;4.93;;;19.80;99.90;;;;;;10578838;28;20229;-86
2022/10/01 23:25:17;;;;;;;4.60;4.20;;;19.60;99.90;;;;;;10543799;28;20265;-86
2022/10/01 23:30:20;;;;;;;5.25;4.75;;;19.50;99.90;;;;;;10516445;28;20251;-86
2022/10/01 23:35:37;;;;;;;5.63;4.90;;;19.60;99.90;;;;;;10537303;28;20233;-86
2022/10/01 23:40:42;;;;;;;5.40;4.90;;;19.60;99.90;;;;;;10557702;28;20236;-86
2022/10/01 23:45:52;;;;;;;5.37;4.73;;;19.80;99.90;;;;;;10544427;28;20331;-86
2022/10/01 23:51:02;;;;;;;4.75;4.32;;;19.70;99.90;;;;;;10535664;28;20658;-86
